createdAt,value
2023-04-30T00:01:45.645Z,98263.00
2023-04-30T00:04:13.387Z,98274.00
2023-04-30T00:06:41.565Z,98270.00
2023-04-30T00:09:09.329Z,98274.00
2023-04-30T00:11:37.005Z,98263.00
2023-04-30T00:14:04.976Z,98271.00
2023-04-30T00:16:32.675Z,98273.00
2023-04-30T00:19:01.679Z,98273.00
2023-04-30T00:21:29.320Z,98269.00
2023-04-30T00:23:56.996Z,98282.00
2023-04-30T00:26:24.757Z,98281.00
2023-04-30T00:28:52.393Z,98288.00
2023-04-30T00:31:20.033Z,98281.00
2023-04-30T00:33:47.709Z,98280.00
2023-04-30T00:36:16.700Z,98286.00
2023-04-30T00:38:44.338Z,98287.00
2023-04-30T00:41:12.168Z,98281.00
2023-04-30T00:43:39.839Z,98284.00
2023-04-30T00:46:07.554Z,98287.00
2023-04-30T00:48:36.420Z,98293.00
2023-04-30T00:51:05.533Z,98287.00
2023-04-30T00:53:35.852Z,98295.00
2023-04-30T00:56:03.696Z,98300.00
2023-04-30T00:58:32.243Z,98298.00
2023-04-30T01:01:00.136Z,98305.00
2023-04-30T01:03:29.414Z,98289.00
2023-04-30T01:05:57.203Z,98304.00
2023-04-30T01:08:25.235Z,98298.00
2023-04-30T01:11:02.478Z,98300.00
2023-04-30T01:13:35.798Z,98304.00
2023-04-30T01:16:12.869Z,98309.00
2023-04-30T01:18:44.623Z,98306.00
2023-04-30T01:21:13.368Z,98312.00
2023-04-30T01:23:59.050Z,98307.00
2023-04-30T01:26:46.524Z,98312.00
2023-04-30T01:29:19.736Z,98309.00
2023-04-30T01:31:47.546Z,98305.00
2023-04-30T01:34:15.365Z,98305.00
2023-04-30T01:36:54.508Z,98308.00
2023-04-30T01:39:37.097Z,98314.00
2023-04-30T01:42:12.183Z,98307.00
2023-04-30T01:44:55.765Z,98308.00
2023-04-30T01:47:34.941Z,98312.00
2023-04-30T01:50:11.186Z,98308.00
2023-04-30T01:52:43.319Z,98316.00
2023-04-30T01:55:19.158Z,98317.00
2023-04-30T01:57:56.677Z,98319.00
2023-04-30T02:00:26.744Z,98320.00
2023-04-30T02:02:54.649Z,98326.00
2023-04-30T02:05:22.336Z,98331.00
2023-04-30T02:07:52.229Z,98335.00
2023-04-30T02:10:21.879Z,98335.00
2023-04-30T02:12:49.708Z,98334.00
2023-04-30T02:15:17.387Z,98335.00
2023-04-30T02:17:46.518Z,98337.00
2023-04-30T02:20:14.177Z,98336.00
2023-04-30T02:22:42.016Z,98331.00
2023-04-30T02:25:12.382Z,98336.00
2023-04-30T02:27:40.153Z,98337.00
2023-04-30T02:30:08.855Z,98346.00
2023-04-30T02:32:36.740Z,98344.00
2023-04-30T02:35:06.529Z,98341.00
2023-04-30T02:37:34.191Z,98336.00
2023-04-30T02:40:01.815Z,98338.00
2023-04-30T02:42:29.455Z,98342.00
2023-04-30T02:44:57.139Z,98333.00
2023-04-30T02:47:24.781Z,98338.00
2023-04-30T02:49:52.730Z,98333.00
2023-04-30T02:52:22.513Z,98341.00
2023-04-30T02:54:50.924Z,98341.00
2023-04-30T02:57:18.573Z,98338.00
2023-04-30T02:59:46.418Z,98339.00
2023-04-30T03:02:14.186Z,98336.00
2023-04-30T03:04:41.868Z,98335.00
2023-04-30T03:07:09.503Z,98335.00
2023-04-30T03:09:38.921Z,98336.00
2023-04-30T03:12:06.838Z,98345.00
2023-04-30T03:14:34.510Z,98345.00
2023-04-30T03:17:02.156Z,98342.00
2023-04-30T03:19:29.863Z,98336.00
2023-04-30T03:21:57.709Z,98335.00
2023-04-30T03:24:25.485Z,98337.00
2023-04-30T03:26:54.515Z,98331.00
2023-04-30T03:29:22.151Z,98334.00
2023-04-30T03:31:49.794Z,98322.00
2023-04-30T03:34:17.469Z,98332.00
2023-04-30T03:36:45.137Z,98326.00
2023-04-30T03:39:12.863Z,98326.00
2023-04-30T03:41:40.619Z,98333.00
2023-04-30T03:44:15.546Z,98333.00
2023-04-30T03:46:43.815Z,98332.00
2023-04-30T03:49:11.616Z,98334.00
2023-04-30T03:51:41.778Z,98336.00
2023-04-30T03:54:10.003Z,98334.00
2023-04-30T03:56:38.606Z,98336.00
2023-04-30T03:59:06.678Z,98331.00
2023-04-30T04:01:35.787Z,98333.00
2023-04-30T04:04:03.759Z,98332.00
2023-04-30T04:06:31.719Z,98329.00
2023-04-30T04:08:59.522Z,98340.00
2023-04-30T04:11:27.245Z,98335.00
2023-04-30T04:13:55.708Z,98336.00
2023-04-30T04:16:23.381Z,98336.00
2023-04-30T04:18:52.678Z,98334.00
2023-04-30T04:21:20.432Z,98341.00
2023-04-30T04:23:48.116Z,98345.00
2023-04-30T04:26:16.551Z,98343.00
2023-04-30T04:28:44.206Z,98343.00
2023-04-30T04:31:12.858Z,98343.00
2023-04-30T04:33:40.632Z,98345.00
2023-04-30T04:36:09.772Z,98355.00
2023-04-30T04:38:37.580Z,98349.00
2023-04-30T04:41:05.280Z,98348.00
2023-04-30T04:43:32.977Z,98354.00
2023-04-30T04:46:00.654Z,98353.00
2023-04-30T04:48:28.362Z,98354.00
2023-04-30T04:50:56.056Z,98353.00
2023-04-30T04:53:25.032Z,98355.00
2023-04-30T04:55:52.689Z,98363.00
2023-04-30T04:58:20.337Z,98360.00
2023-04-30T05:00:48.020Z,98364.00
2023-04-30T05:03:15.810Z,98365.00
2023-04-30T05:05:44.303Z,98363.00
2023-04-30T05:08:11.930Z,98359.00
2023-04-30T05:10:40.938Z,98370.00
2023-04-30T05:13:08.599Z,98357.00
2023-04-30T05:15:36.449Z,98365.00
2023-04-30T05:18:04.282Z,98362.00
2023-04-30T05:20:31.982Z,98368.00
2023-04-30T05:22:59.617Z,98367.00
2023-04-30T05:25:27.387Z,98371.00
2023-04-30T05:27:56.468Z,98372.00
2023-04-30T05:30:24.138Z,98373.00
2023-04-30T05:32:52.612Z,98374.00
2023-04-30T05:35:20.761Z,98377.00
2023-04-30T05:37:48.397Z,98382.00
2023-04-30T05:40:16.094Z,98376.00
2023-04-30T05:42:44.594Z,98379.00
2023-04-30T05:45:15.941Z,98380.00
2023-04-30T05:47:43.664Z,98379.00
2023-04-30T05:50:11.627Z,98377.00
2023-04-30T05:52:39.737Z,98381.00
2023-04-30T05:55:08.671Z,98379.00
2023-04-30T05:57:36.446Z,98387.00
2023-04-30T06:00:06.579Z,98383.00
2023-04-30T06:02:35.820Z,98377.00
2023-04-30T06:05:03.758Z,98382.00
2023-04-30T06:07:31.643Z,98381.00
2023-04-30T06:09:59.330Z,98389.00
2023-04-30T06:12:27.134Z,98384.00
2023-04-30T06:14:54.863Z,98384.00
2023-04-30T06:17:22.493Z,98385.00
2023-04-30T06:19:51.522Z,98384.00
2023-04-30T06:22:19.172Z,98380.00
2023-04-30T06:24:46.834Z,98375.00
2023-04-30T06:27:14.451Z,98384.00
2023-04-30T06:29:42.096Z,98381.00
2023-04-30T06:32:09.738Z,98378.00
2023-04-30T06:34:37.697Z,98374.00
2023-04-30T06:37:06.778Z,98374.00
2023-04-30T06:39:34.465Z,98377.00
2023-04-30T06:42:02.107Z,98380.00
2023-04-30T06:44:29.743Z,98378.00
2023-04-30T06:46:57.425Z,98374.00
2023-04-30T06:49:25.072Z,98383.00
2023-04-30T06:51:52.733Z,98380.00
2023-04-30T06:54:22.810Z,98379.00
2023-04-30T06:56:50.533Z,98379.00
2023-04-30T06:59:18.168Z,98375.00
2023-04-30T07:01:45.892Z,98378.00
2023-04-30T07:04:13.551Z,98383.00
2023-04-30T07:06:41.589Z,98374.00
2023-04-30T07:09:09.576Z,98370.00
2023-04-30T07:11:38.589Z,98383.00
2023-04-30T07:14:06.211Z,98382.00
2023-04-30T07:16:34.117Z,98376.00
2023-04-30T07:19:01.783Z,98380.00
2023-04-30T07:21:29.467Z,98388.00
2023-04-30T07:23:57.110Z,98385.00
2023-04-30T07:26:26.496Z,98377.00
2023-04-30T07:28:55.541Z,98379.00
2023-04-30T07:31:23.249Z,98378.00
2023-04-30T07:33:51.348Z,98374.00
2023-04-30T07:36:19.096Z,98375.00
2023-04-30T07:38:46.845Z,98371.00
2023-04-30T07:41:14.776Z,98378.00
2023-04-30T07:43:42.785Z,98381.00
2023-04-30T07:46:11.886Z,98382.00
2023-04-30T07:48:39.535Z,98372.00
2023-04-30T07:51:07.301Z,98380.00
2023-04-30T07:53:34.954Z,98377.00
2023-04-30T07:56:02.621Z,98374.00
2023-04-30T07:58:30.338Z,98375.00
2023-04-30T08:00:58.011Z,98371.00
2023-04-30T08:03:27.168Z,98370.00
2023-04-30T08:05:54.949Z,98381.00
2023-04-30T08:08:22.721Z,98377.00
2023-04-30T08:10:50.388Z,98377.00
2023-04-30T08:13:18.066Z,98373.00
2023-04-30T08:15:46.309Z,98370.00
2023-04-30T08:18:14.109Z,98371.00
2023-04-30T08:20:43.177Z,98376.00
2023-04-30T08:23:10.802Z,98370.00
2023-04-30T08:25:38.480Z,98375.00
2023-04-30T08:28:08.043Z,98368.00
2023-04-30T08:30:35.707Z,98354.00
2023-04-30T08:33:03.409Z,98356.00
2023-04-30T08:35:31.128Z,98366.00
2023-04-30T08:38:00.145Z,98363.00
2023-04-30T08:40:43.761Z,98362.00
2023-04-30T08:43:17.169Z,98360.00
2023-04-30T08:45:45.493Z,98364.00
2023-04-30T08:48:15.198Z,98359.00
2023-04-30T08:50:43.259Z,98352.00
2023-04-30T08:53:15.751Z,98352.00
2023-04-30T08:55:43.482Z,98360.00
2023-04-30T08:58:11.364Z,98361.00
2023-04-30T09:00:40.435Z,98361.00
2023-04-30T09:03:09.145Z,98368.00
2023-04-30T09:05:38.708Z,98364.00
2023-04-30T09:08:07.938Z,98361.00
2023-04-30T09:10:37.147Z,98357.00
2023-04-30T09:13:06.034Z,98361.00
2023-04-30T09:15:37.135Z,98363.00
2023-04-30T09:18:13.234Z,98364.00
2023-04-30T09:20:55.892Z,98370.00
2023-04-30T09:23:23.758Z,98359.00
2023-04-30T09:25:52.839Z,98356.00
2023-04-30T09:28:23.794Z,98361.00
2023-04-30T09:30:52.257Z,98370.00
2023-04-30T09:33:20.392Z,98358.00
2023-04-30T09:35:48.893Z,98354.00
2023-04-30T09:38:28.019Z,98360.00
2023-04-30T09:41:00.397Z,98354.00
2023-04-30T09:43:28.401Z,98358.00
2023-04-30T09:45:56.366Z,98365.00
2023-04-30T09:48:25.231Z,98357.00
2023-04-30T09:50:53.216Z,98350.00
2023-04-30T09:53:21.663Z,98351.00
2023-04-30T09:55:50.910Z,98351.00
2023-04-30T09:58:20.916Z,98357.00
2023-04-30T10:00:49.612Z,98350.00
2023-04-30T10:03:17.468Z,98360.00
2023-04-30T10:05:48.319Z,98349.00
2023-04-30T10:08:22.725Z,98340.00
2023-04-30T10:10:55.141Z,98339.00
2023-04-30T10:13:27.012Z,98341.00
2023-04-30T10:16:00.521Z,98341.00
2023-04-30T10:18:32.384Z,98335.00
2023-04-30T10:21:04.059Z,98335.00
2023-04-30T10:23:31.918Z,98336.00
2023-04-30T10:26:00.143Z,98319.00
2023-04-30T10:28:30.998Z,98324.00
2023-04-30T10:30:59.579Z,98321.00
2023-04-30T10:33:35.688Z,98327.00
2023-04-30T10:36:08.981Z,98330.00
2023-04-30T10:38:38.607Z,98330.00
2023-04-30T10:41:09.557Z,98323.00
2023-04-30T10:43:39.134Z,98314.00
2023-04-30T10:46:06.952Z,98318.00
2023-04-30T10:48:36.044Z,98309.00
2023-04-30T10:51:03.775Z,98311.00
2023-04-30T10:53:32.824Z,98310.00
2023-04-30T10:56:06.643Z,98314.00
2023-04-30T10:58:35.610Z,98299.00
2023-04-30T11:01:08.486Z,98304.00
2023-04-30T11:03:37.334Z,98301.00
2023-04-30T11:06:13.451Z,98304.00
2023-04-30T11:08:44.718Z,98296.00
2023-04-30T11:11:14.970Z,98299.00
2023-04-30T11:13:45.447Z,98290.00
2023-04-30T11:16:16.769Z,98290.00
2023-04-30T11:18:46.178Z,98293.00
2023-04-30T11:21:14.266Z,98285.00
2023-04-30T11:23:44.091Z,98282.00
2023-04-30T11:26:12.149Z,98280.00
2023-04-30T11:28:39.857Z,98274.00
2023-04-30T11:31:16.544Z,98274.00
2023-04-30T11:33:44.255Z,98268.00
2023-04-30T11:36:11.938Z,98256.00
2023-04-30T11:38:39.977Z,98261.00
2023-04-30T11:41:07.782Z,98262.00
2023-04-30T11:43:36.398Z,98256.00
2023-04-30T11:46:09.166Z,98258.00
2023-04-30T11:48:39.387Z,98259.00
2023-04-30T11:51:15.749Z,98248.00
2023-04-30T11:53:43.628Z,98254.00
2023-04-30T11:56:11.271Z,98257.00
2023-04-30T11:58:40.248Z,98251.00
2023-04-30T12:01:09.590Z,98257.00
2023-04-30T12:03:44.247Z,98258.00
2023-04-30T12:06:13.036Z,98250.00
2023-04-30T12:08:43.053Z,98241.00
2023-04-30T12:11:25.328Z,98249.00
2023-04-30T12:13:54.413Z,98249.00
2023-04-30T12:16:22.176Z,98248.00
2023-04-30T12:18:52.858Z,98240.00
2023-04-30T12:21:22.737Z,98251.00
2023-04-30T12:23:50.658Z,98249.00
2023-04-30T12:26:18.812Z,98249.00
2023-04-30T12:28:48.482Z,98246.00
2023-04-30T12:31:18.136Z,98243.00
2023-04-30T12:33:49.025Z,98248.00
2023-04-30T12:36:18.079Z,98248.00
2023-04-30T12:38:45.751Z,98236.00
2023-04-30T12:41:15.310Z,98238.00
2023-04-30T12:43:43.004Z,98232.00
2023-04-30T12:46:10.765Z,98231.00
2023-04-30T12:48:45.399Z,98233.00
2023-04-30T12:51:13.180Z,98230.00
2023-04-30T12:53:47.346Z,98231.00
2023-04-30T12:56:16.954Z,98228.00
2023-04-30T12:58:47.574Z,98221.00
2023-04-30T13:01:19.320Z,98216.00
2023-04-30T13:03:47.476Z,98220.00
2023-04-30T13:06:15.463Z,98227.00
2023-04-30T13:08:57.124Z,98213.00
2023-04-30T13:11:27.686Z,98206.00
2023-04-30T13:13:56.562Z,98213.00
2023-04-30T13:16:25.433Z,98210.00
2023-04-30T13:18:53.733Z,98207.00
2023-04-30T13:21:21.677Z,98208.00
2023-04-30T13:23:53.754Z,98199.00
2023-04-30T13:26:23.220Z,98201.00
2023-04-30T13:28:52.574Z,98194.00
2023-04-30T13:31:20.510Z,98193.00
2023-04-30T13:33:48.301Z,98191.00
2023-04-30T13:36:16.302Z,98190.00
2023-04-30T13:38:44.540Z,98182.00
2023-04-30T13:41:12.323Z,98186.00
2023-04-30T13:43:42.671Z,98184.00
2023-04-30T13:46:12.326Z,98185.00
2023-04-30T13:48:40.024Z,98189.00
2023-04-30T13:51:08.454Z,98183.00
2023-04-30T13:53:37.046Z,98184.00
2023-04-30T13:56:05.124Z,98180.00
2023-04-30T13:58:33.449Z,98184.00
2023-04-30T14:01:01.228Z,98179.00
2023-04-30T14:03:30.548Z,98174.00
2023-04-30T14:05:58.574Z,98184.00
2023-04-30T14:08:26.269Z,98175.00
2023-04-30T14:10:53.936Z,98169.00
2023-04-30T14:13:21.587Z,98168.00
2023-04-30T14:15:52.055Z,98165.00
2023-04-30T14:18:22.794Z,98165.00
2023-04-30T14:20:52.032Z,98172.00
2023-04-30T14:23:19.693Z,98162.00
2023-04-30T14:25:47.631Z,98165.00
2023-04-30T14:28:15.322Z,98156.00
2023-04-30T14:30:43.688Z,98157.00
2023-04-30T14:33:13.006Z,98159.00
2023-04-30T14:35:41.602Z,98152.00
2023-04-30T14:38:10.768Z,98151.00
2023-04-30T14:40:38.468Z,98140.00
2023-04-30T14:43:06.240Z,98137.00
2023-04-30T14:45:34.311Z,98135.00
2023-04-30T14:48:05.156Z,98132.00
2023-04-30T14:50:33.420Z,98120.00
2023-04-30T14:53:01.093Z,98121.00
2023-04-30T14:55:30.290Z,98126.00
2023-04-30T14:57:58.170Z,98132.00
2023-04-30T15:00:26.006Z,98128.00
2023-04-30T15:02:53.780Z,98121.00
2023-04-30T15:05:22.178Z,98121.00
2023-04-30T15:07:49.872Z,98123.00
2023-04-30T15:10:18.593Z,98119.00
2023-04-30T15:12:47.681Z,98114.00
2023-04-30T15:15:17.383Z,98112.00
2023-04-30T15:17:46.414Z,98115.00
2023-04-30T15:20:14.261Z,98110.00
2023-04-30T15:22:42.262Z,98111.00
2023-04-30T15:25:10.481Z,98113.00
2023-04-30T15:27:39.034Z,98117.00
2023-04-30T15:30:09.647Z,98112.00
2023-04-30T15:32:37.487Z,98109.00
2023-04-30T15:35:05.801Z,98111.00
2023-04-30T15:37:34.532Z,98106.00
2023-04-30T15:40:02.261Z,98109.00
2023-04-30T15:42:30.032Z,98107.00
2023-04-30T15:44:57.802Z,98104.00
2023-04-30T15:47:26.917Z,98100.00
2023-04-30T15:49:54.913Z,98095.00
2023-04-30T15:52:22.814Z,98094.00
2023-04-30T15:54:51.137Z,98091.00
2023-04-30T15:57:19.144Z,98086.00
2023-04-30T15:59:46.819Z,98095.00
2023-04-30T16:02:14.509Z,98092.00
2023-04-30T16:04:44.520Z,98101.00
2023-04-30T16:07:12.781Z,98095.00
2023-04-30T16:09:41.640Z,98095.00
2023-04-30T16:12:09.297Z,98093.00
2023-04-30T16:14:36.930Z,98098.00
2023-04-30T16:17:04.727Z,98094.00
2023-04-30T16:19:33.091Z,98093.00
2023-04-30T16:22:02.260Z,98086.00
2023-04-30T16:24:29.936Z,98089.00
2023-04-30T16:26:57.627Z,98094.00
2023-04-30T16:29:25.912Z,98091.00
2023-04-30T16:31:53.822Z,98086.00
2023-04-30T16:34:21.613Z,98084.00
2023-04-30T16:36:49.423Z,98088.00
2023-04-30T16:39:18.592Z,98091.00
2023-04-30T16:41:46.265Z,98093.00
2023-04-30T16:44:13.915Z,98081.00
2023-04-30T16:46:41.594Z,98089.00
2023-04-30T16:49:09.272Z,98084.00
2023-04-30T16:51:36.946Z,98077.00
2023-04-30T16:54:04.697Z,98076.00
2023-04-30T16:56:33.769Z,98074.00
2023-04-30T16:59:01.411Z,98077.00
2023-04-30T17:01:29.265Z,98077.00
2023-04-30T17:03:57.009Z,98077.00
2023-04-30T17:06:24.990Z,98083.00
2023-04-30T17:08:53.277Z,98082.00
2023-04-30T17:11:22.371Z,98075.00
2023-04-30T17:13:53.574Z,98070.00
2023-04-30T17:16:21.313Z,98075.00
2023-04-30T17:18:49.083Z,98079.00
2023-04-30T17:21:17.035Z,98075.00
2023-04-30T17:23:44.774Z,98065.00
2023-04-30T17:26:12.459Z,98063.00
2023-04-30T17:28:40.101Z,98072.00
2023-04-30T17:31:09.668Z,98073.00
2023-04-30T17:33:37.812Z,98071.00
2023-04-30T17:36:05.997Z,98068.00
2023-04-30T17:38:33.684Z,98072.00
2023-04-30T17:41:01.485Z,98066.00
2023-04-30T17:43:30.029Z,98074.00
2023-04-30T17:45:57.708Z,98066.00
2023-04-30T17:48:27.316Z,98065.00
2023-04-30T17:50:55.392Z,98067.00
2023-04-30T17:53:23.079Z,98065.00
2023-04-30T17:55:50.743Z,98073.00
2023-04-30T17:58:18.404Z,98066.00
2023-04-30T18:00:46.321Z,98069.00
2023-04-30T18:03:14.710Z,98064.00
2023-04-30T18:05:45.097Z,98068.00
2023-04-30T18:08:12.792Z,98066.00
2023-04-30T18:10:40.449Z,98064.00
2023-04-30T18:13:08.208Z,98070.00
2023-04-30T18:15:36.031Z,98064.00
2023-04-30T18:18:03.718Z,98066.00
2023-04-30T18:20:31.500Z,98069.00
2023-04-30T18:23:00.512Z,98073.00
2023-04-30T18:25:28.510Z,98067.00
2023-04-30T18:27:56.202Z,98077.00
2023-04-30T18:30:23.961Z,98064.00
2023-04-30T18:32:51.731Z,98067.00
2023-04-30T18:35:19.546Z,98067.00
2023-04-30T18:37:47.273Z,98067.00
2023-04-30T18:40:16.569Z,98069.00
2023-04-30T18:42:44.742Z,98061.00
2023-04-30T18:45:12.749Z,98069.00
2023-04-30T18:47:40.511Z,98071.00
2023-04-30T18:50:13.320Z,98076.00
2023-04-30T18:52:41.500Z,98069.00
2023-04-30T18:55:11.649Z,98079.00
2023-04-30T18:57:42.399Z,98077.00
2023-04-30T19:00:12.218Z,98075.00
2023-04-30T19:02:40.494Z,98083.00
2023-04-30T19:05:08.566Z,98080.00
2023-04-30T19:07:36.255Z,98081.00
2023-04-30T19:10:04.855Z,98084.00
2023-04-30T19:12:32.510Z,98082.00
2023-04-30T19:15:01.918Z,98076.00
2023-04-30T19:17:29.621Z,98081.00
2023-04-30T19:19:58.800Z,98084.00
2023-04-30T19:22:26.743Z,98087.00
2023-04-30T19:24:54.375Z,98081.00
2023-04-30T19:27:22.028Z,98089.00
2023-04-30T19:29:49.675Z,98092.00
2023-04-30T19:32:18.844Z,98089.00
2023-04-30T19:34:46.896Z,98088.00
2023-04-30T19:37:14.799Z,98091.00
2023-04-30T19:39:42.486Z,98094.00
2023-04-30T19:42:10.183Z,98090.00
2023-04-30T19:44:37.942Z,98089.00
2023-04-30T19:47:05.861Z,98093.00
2023-04-30T19:49:36.055Z,98087.00
2023-04-30T19:52:03.683Z,98085.00
2023-04-30T19:54:31.353Z,98093.00
2023-04-30T19:57:02.988Z,98091.00
2023-04-30T19:59:31.548Z,98088.00
2023-04-30T20:02:00.050Z,98092.00
2023-04-30T20:04:28.742Z,98095.00
2023-04-30T20:06:58.375Z,98095.00
2023-04-30T20:09:26.389Z,98094.00
2023-04-30T20:11:54.965Z,98090.00
2023-04-30T20:14:23.921Z,98090.00
2023-04-30T20:16:54.239Z,98085.00
2023-04-30T20:19:22.990Z,98087.00
2023-04-30T20:21:51.053Z,98100.00
2023-04-30T20:24:21.622Z,98089.00
2023-04-30T20:26:49.314Z,98094.00
2023-04-30T20:29:18.532Z,98092.00
2023-04-30T20:31:46.537Z,98095.00
2023-04-30T20:34:14.255Z,98090.00
2023-04-30T20:36:41.961Z,98094.00
2023-04-30T20:39:09.737Z,98097.00
2023-04-30T20:41:39.333Z,98092.00
2023-04-30T20:44:06.998Z,98089.00
2023-04-30T20:46:34.767Z,98093.00
2023-04-30T20:49:04.539Z,98093.00
2023-04-30T20:51:32.696Z,98089.00
2023-04-30T20:54:00.433Z,98094.00
2023-04-30T20:56:28.327Z,98091.00
2023-04-30T20:58:57.387Z,98095.00
2023-04-30T21:01:25.060Z,98109.00
2023-04-30T21:03:52.816Z,98102.00
2023-04-30T21:06:20.566Z,98099.00
2023-04-30T21:08:48.909Z,98099.00
2023-04-30T21:11:16.583Z,98098.00
2023-04-30T21:13:44.276Z,98106.00
2023-04-30T21:16:13.976Z,98101.00
2023-04-30T21:18:41.697Z,98106.00
2023-04-30T21:21:10.634Z,98106.00
2023-04-30T21:23:42.646Z,98105.00
2023-04-30T21:26:13.794Z,98106.00
2023-04-30T21:28:45.914Z,98107.00
2023-04-30T21:31:20.152Z,98108.00
2023-04-30T21:33:48.168Z,98096.00
2023-04-30T21:36:16.600Z,98092.00
2023-04-30T21:38:44.253Z,98092.00
2023-04-30T21:41:14.746Z,98096.00
2023-04-30T21:43:42.718Z,98096.00
2023-04-30T21:46:10.945Z,98092.00
2023-04-30T21:48:40.513Z,98092.00
2023-04-30T21:51:12.308Z,98098.00
2023-04-30T21:53:39.951Z,98099.00
2023-04-30T21:56:08.378Z,98096.00
2023-04-30T21:58:36.499Z,98106.00
2023-04-30T22:01:05.231Z,98100.00
2023-04-30T22:03:33.204Z,98095.00
2023-04-30T22:06:02.469Z,98087.00
2023-04-30T22:08:30.559Z,98092.00
2023-04-30T22:10:59.058Z,98104.00
2023-04-30T22:13:27.014Z,98092.00
2023-04-30T22:15:55.179Z,98101.00
2023-04-30T22:18:23.643Z,98094.00
2023-04-30T22:20:52.207Z,98098.00
2023-04-30T22:23:21.708Z,98090.00
2023-04-30T22:25:49.580Z,98094.00
2023-04-30T22:28:19.168Z,98088.00
2023-04-30T22:30:46.883Z,98091.00
2023-04-30T22:33:14.641Z,98090.00
2023-04-30T22:35:42.351Z,98090.00
2023-04-30T22:38:10.989Z,98091.00
2023-04-30T22:40:40.432Z,98084.00
2023-04-30T22:43:08.263Z,98094.00
2023-04-30T22:45:40.221Z,98082.00
2023-04-30T22:48:09.663Z,98084.00
2023-04-30T22:50:38.020Z,98081.00
2023-04-30T22:53:05.806Z,98084.00
2023-04-30T22:55:36.010Z,98080.00
2023-04-30T22:58:05.029Z,98079.00
2023-04-30T23:00:32.939Z,98084.00
2023-04-30T23:03:00.837Z,98083.00
2023-04-30T23:05:28.502Z,98091.00
2023-04-30T23:07:56.288Z,98095.00
2023-04-30T23:10:23.942Z,98084.00
2023-04-30T23:12:55.311Z,98090.00
2023-04-30T23:15:24.476Z,98091.00
2023-04-30T23:17:52.194Z,98085.00
2023-04-30T23:20:19.876Z,98091.00
2023-04-30T23:22:47.643Z,98086.00
2023-04-30T23:25:15.304Z,98082.00
2023-04-30T23:27:44.073Z,98085.00
2023-04-30T23:30:12.257Z,98088.00
2023-04-30T23:32:41.655Z,98083.00
2023-04-30T23:35:09.990Z,98083.00
2023-04-30T23:37:37.706Z,98073.00
2023-04-30T23:40:07.462Z,98070.00
2023-04-30T23:42:35.663Z,98068.00
2023-04-30T23:45:03.800Z,98063.00
2023-04-30T23:47:31.630Z,98066.00
2023-04-30T23:50:00.784Z,98067.00
2023-04-30T23:52:28.428Z,98059.00
2023-04-30T23:54:56.857Z,98063.00
2023-04-30T23:57:25.867Z,98059.00
2023-04-30T23:59:53.476Z,98056.00
